Time;durP1;ratioP1;P1;durP2;ratioP2;P2;SDS_P1;SDS_P2;PMS_P1;PMS_P2;Temp;Humidity;BMP_temperature;BMP_pressure;BME280_temperature;BME280_humidity;BME280_pressure;Samples;Min_cycle;Max_cycle;Signal;HPM_P1;HPM_P2
2022/01/11 00:00:59;;;;;;;120.80;41.07;;;0.50;99.90;;;;;;5048292;28;20438;-66
2022/01/11 00:03:25;;;;;;;96.47;33.83;;;0.50;99.90;;;;;;5047087;28;20570;-66
2022/01/11 00:05:57;;;;;;;30.23;13.80;;;0.50;99.90;;;;;;5047539;28;20499;-66
2022/01/11 00:08:30;;;;;;;35.57;14.67;;;0.50;99.90;;;;;;5046240;28;20638;-66
2022/01/11 00:11:03;;;;;;;48.27;17.77;;;0.50;99.90;;;;;;5051067;28;21061;-66
2022/01/11 00:13:34;;;;;;;58.00;21.10;;;0.50;99.90;;;;;;5042686;28;20432;-66
2022/01/11 00:15:59;;;;;;;24.43;11.70;;;0.50;99.90;;;;;;5051656;28;20428;-66
2022/01/11 00:18:26;;;;;;;32.70;13.77;;;0.50;99.90;;;;;;5059892;28;20958;-66
2022/01/11 00:20:52;;;;;;;32.60;13.03;;;0.50;99.90;;;;;;5068229;28;20193;-66
2022/01/11 00:25:46;;;;;;;46.23;14.40;;;0.50;99.90;;;;;;5066011;28;20177;-66
2022/01/11 00:28:14;;;;;;;34.23;14.13;;;0.50;99.90;;;;;;5059905;28;20189;-66
2022/01/11 00:30:42;;;;;;;41.70;14.57;;;0.60;99.90;;;;;;5056077;28;20978;-66
2022/01/11 00:33:13;;;;;;;42.97;15.47;;;0.50;99.90;;;;;;5063414;28;20427;-66
2022/01/11 00:35:45;;;;;;;37.43;14.10;;;0.50;99.90;;;;;;5065940;28;20449;-66
2022/01/11 00:38:16;;;;;;;37.03;14.37;;;0.50;99.90;;;;;;5062342;28;20423;-66
2022/01/11 00:40:53;;;;;;;29.93;14.20;;;0.50;99.90;;;;;;5052021;28;20430;-66
2022/01/11 00:43:23;;;;;;;77.27;25.30;;;0.40;99.90;;;;;;5057024;28;20472;-66
2022/01/11 00:45:50;;;;;;;45.07;16.13;;;0.40;99.90;;;;;;5059507;28;20423;-66
2022/01/11 00:48:16;;;;;;;122.03;37.50;;;0.40;99.90;;;;;;5059108;28;20416;-66
2022/01/11 00:50:41;;;;;;;34.90;15.60;;;0.50;99.90;;;;;;5062268;28;20776;-66
2022/01/11 00:53:08;;;;;;;33.80;15.40;;;0.40;99.90;;;;;;5063693;28;20423;-66
2022/01/11 00:55:35;;;;;;;40.77;15.13;;;0.40;99.90;;;;;;5060476;28;20822;-66
2022/01/11 00:58:05;;;;;;;43.40;14.23;;;0.40;99.90;;;;;;5059733;28;20489;-66
2022/01/11 01:00:32;;;;;;;34.83;12.33;;;0.40;99.90;;;;;;5066927;28;20454;-66
2022/01/11 01:02:58;;;;;;;28.10;12.87;;;0.30;99.90;;;;;;5066829;28;20939;-66
2022/01/11 01:05:24;;;;;;;32.30;13.70;;;0.30;99.90;;;;;;5061108;28;20420;-66
2022/01/11 01:07:50;;;;;;;39.87;13.40;;;0.30;99.90;;;;;;5065900;28;20202;-66
2022/01/11 01:12:49;;;;;;;26.10;12.20;;;0.10;99.90;;;;;;5052516;28;20439;-66
2022/01/11 01:15:15;;;;;;;27.40;11.97;;;0.10;99.90;;;;;;5063146;28;20419;-66
2022/01/11 01:17:40;;;;;;;32.70;13.53;;;0.10;99.90;;;;;;5056823;28;20181;-66
2022/01/11 01:20:07;;;;;;;35.43;12.97;;;0.10;99.90;;;;;;5060175;28;20568;-66
2022/01/11 01:22:33;;;;;;;30.67;14.30;;;0.10;99.90;;;;;;5068187;28;20315;-66
2022/01/11 01:24:59;;;;;;;29.40;10.70;;;0.00;99.90;;;;;;5057980;28;20496;-66
2022/01/11 01:27:24;;;;;;;31.17;12.20;;;0.00;99.90;;;;;;5066818;28;20628;-66
2022/01/11 01:29:50;;;;;;;26.50;11.70;;;0.00;99.90;;;;;;5067715;28;20559;-66
2022/01/11 01:32:16;;;;;;;27.77;11.87;;;0.00;99.90;;;;;;5065494;28;20454;-66
2022/01/11 01:34:41;;;;;;;32.83;12.07;;;0.00;99.90;;;;;;5065852;28;20181;-66
2022/01/11 01:37:07;;;;;;;28.80;13.03;;;0.00;99.90;;;;;;5064575;28;20290;-66
2022/01/11 01:39:34;;;;;;;32.73;13.30;;;0.00;99.90;;;;;;5054309;28;20181;-66
2022/01/11 01:42:03;;;;;;;54.40;12.00;;;0.00;99.90;;;;;;5063095;28;20189;-66
2022/01/11 01:44:30;;;;;;;32.47;13.90;;;-0.10;99.90;;;;;;5062890;28;20553;-66
2022/01/11 01:46:56;;;;;;;38.53;13.80;;;0.00;99.90;;;;;;5054941;28;20529;-66
2022/01/11 01:49:23;;;;;;;24.10;12.73;;;0.00;99.90;;;;;;5054387;28;20420;-66
2022/01/11 01:51:50;;;;;;;23.00;11.13;;;0.00;99.90;;;;;;5063598;28;20419;-66
2022/01/11 01:54:16;;;;;;;30.53;11.17;;;0.00;99.90;;;;;;5054901;28;20436;-65
2022/01/11 01:56:42;;;;;;;28.53;13.03;;;0.10;99.90;;;;;;5059949;28;20665;-66
2022/01/11 01:59:08;;;;;;;33.00;13.90;;;0.10;99.90;;;;;;5058536;28;20432;-66
2022/01/11 02:01:38;;;;;;;29.83;12.87;;;0.10;99.90;;;;;;5063024;28;20469;-66
2022/01/11 02:04:04;;;;;;;29.47;12.23;;;0.20;99.90;;;;;;5053994;28;20201;-66
2022/01/11 02:06:30;;;;;;;47.10;13.50;;;0.20;99.90;;;;;;5054088;28;20486;-65
2022/01/11 02:08:56;;;;;;;32.53;11.87;;;0.30;99.90;;;;;;5058999;28;20185;-65
2022/01/11 02:11:24;;;;;;;32.27;13.20;;;0.30;99.90;;;;;;5055613;28;20195;-65
2022/01/11 02:13:50;;;;;;;33.43;13.80;;;0.30;99.90;;;;;;5066280;28;20181;-64
2022/01/11 02:16:21;;;;;;;35.93;13.93;;;0.30;99.90;;;;;;5065560;28;20482;-66
2022/01/11 02:18:47;;;;;;;37.97;13.53;;;0.30;99.90;;;;;;5064204;28;20478;-66
2022/01/11 02:21:13;;;;;;;37.67;14.97;;;0.30;99.90;;;;;;5062386;28;20463;-66
2022/01/11 02:23:39;;;;;;;29.97;13.83;;;0.40;99.90;;;;;;5063083;28;20252;-66
2022/01/11 02:26:05;;;;;;;31.70;13.70;;;0.40;99.90;;;;;;5058819;28;20983;-66
2022/01/11 02:28:32;;;;;;;32.57;13.60;;;0.40;99.90;;;;;;5062016;28;20911;-66
2022/01/11 02:30:59;;;;;;;31.20;13.40;;;0.40;99.90;;;;;;5063872;28;20430;-66
2022/01/11 02:33:37;;;;;;;29.43;12.83;;;0.50;99.90;;;;;;5054472;28;20511;-66
2022/01/11 02:36:08;;;;;;;39.90;13.87;;;0.50;99.90;;;;;;5048618;28;20440;-66
2022/01/11 02:38:34;;;;;;;31.93;13.03;;;0.50;99.90;;;;;;5056242;28;20439;-66
2022/01/11 02:41:00;;;;;;;29.30;12.93;;;0.50;99.90;;;;;;5067132;28;20481;-66
2022/01/11 02:43:27;;;;;;;26.70;11.50;;;0.50;99.90;;;;;;5063541;28;20459;-66
2022/01/11 02:45:53;;;;;;;26.63;13.13;;;0.50;99.90;;;;;;5051818;28;20417;-66
2022/01/11 02:48:19;;;;;;;23.30;11.53;;;0.50;99.90;;;;;;5066560;28;20417;-66
2022/01/11 02:50:45;;;;;;;31.97;13.07;;;0.60;99.90;;;;;;5064446;28;20262;-66
2022/01/11 02:53:12;;;;;;;28.13;12.57;;;0.60;99.90;;;;;;5065161;28;20426;-66
2022/01/11 02:55:40;;;;;;;38.60;12.70;;;0.70;99.90;;;;;;5059503;28;20768;-66
2022/01/11 02:58:06;;;;;;;39.70;13.80;;;0.70;99.90;;;;;;5057955;28;20440;-66
2022/01/11 03:00:32;;;;;;;30.87;14.63;;;0.70;99.90;;;;;;5059186;28;20507;-66
2022/01/11 03:03:12;;;;;;;38.87;14.23;;;0.70;99.90;;;;;;5058430;28;20584;-66
2022/01/11 03:05:44;;;;;;;38.73;11.60;;;0.70;99.90;;;;;;5059253;28;20186;-66
2022/01/11 03:08:11;;;;;;;31.23;13.53;;;0.70;99.90;;;;;;5065802;28;21127;-66
2022/01/11 03:10:37;;;;;;;36.00;13.60;;;0.70;99.90;;;;;;5062898;28;20423;-66
2022/01/11 03:13:04;;;;;;;36.03;14.87;;;0.70;99.90;;;;;;5063402;28;20480;-66
2022/01/11 03:15:31;;;;;;;35.80;12.60;;;0.70;99.90;;;;;;5058062;28;20193;-66
2022/01/11 03:17:56;;;;;;;32.70;13.47;;;0.60;99.90;;;;;;5064344;28;20441;-66
2022/01/11 03:20:22;;;;;;;35.60;14.83;;;0.60;99.90;;;;;;5059681;28;20947;-66
2022/01/11 03:22:49;;;;;;;28.87;12.23;;;0.60;99.90;;;;;;5063405;28;20209;-66
2022/01/11 03:25:16;;;;;;;36.60;13.10;;;0.60;99.90;;;;;;5058366;28;20220;-66
2022/01/11 03:27:43;;;;;;;40.70;13.20;;;0.60;99.90;;;;;;5050718;28;20443;-67
2022/01/11 03:30:10;;;;;;;41.07;13.33;;;0.60;99.90;;;;;;5056165;28;20420;-66
2022/01/11 03:32:36;;;;;;;38.83;13.00;;;0.60;99.90;;;;;;5053978;28;20964;-66
2022/01/11 03:35:03;;;;;;;34.50;14.27;;;0.60;99.90;;;;;;5058843;28;20528;-66
2022/01/11 03:37:29;;;;;;;39.87;14.10;;;0.60;99.90;;;;;;5058401;28;20205;-66
2022/01/11 03:39:54;;;;;;;44.70;13.27;;;0.50;99.90;;;;;;5058928;28;20464;-66
2022/01/11 03:42:20;;;;;;;32.77;12.10;;;0.50;99.90;;;;;;5061369;28;20277;-66
2022/01/11 03:44:46;;;;;;;26.50;11.30;;;0.50;99.90;;;;;;5058735;28;20533;-66
2022/01/11 03:47:12;;;;;;;28.70;12.73;;;0.50;99.90;;;;;;5067885;28;20839;-67
2022/01/11 03:49:38;;;;;;;32.10;13.80;;;0.50;99.90;;;;;;5069499;28;20502;-66
2022/01/11 03:52:04;;;;;;;41.80;13.00;;;0.50;99.90;;;;;;5067945;28;20211;-67
2022/01/11 03:54:43;;;;;;;45.13;14.77;;;0.50;99.90;;;;;;5065738;28;20487;-66
2022/01/11 03:57:09;;;;;;;40.63;15.23;;;0.50;99.90;;;;;;5063314;28;20553;-66
2022/01/11 03:59:34;;;;;;;29.67;12.60;;;0.50;99.90;;;;;;5064805;28;20514;-66
2022/01/11 04:02:00;;;;;;;29.87;11.23;;;0.50;99.90;;;;;;5066532;28;20538;-66
2022/01/11 04:04:26;;;;;;;32.17;12.73;;;0.50;99.90;;;;;;5057417;28;20220;-66
2022/01/11 04:06:52;;;;;;;37.93;13.73;;;0.40;99.90;;;;;;5066441;28;20198;-66
2022/01/11 04:09:18;;;;;;;38.73;15.10;;;0.40;99.90;;;;;;5057987;28;20288;-66
2022/01/11 04:11:43;;;;;;;38.10;12.03;;;0.40;99.90;;;;;;5066166;28;20196;-66
2022/01/11 04:14:09;;;;;;;33.90;14.93;;;0.30;99.90;;;;;;5057638;28;20273;-66
2022/01/11 04:19:59;;;;;;;26.60;12.27;;;0.40;99.90;;;;;;5311124;22;20317;-62
2022/01/11 04:22:24;;;;;;;30.13;11.10;;;0.40;99.90;;;;;;5052412;28;21241;-64
2022/01/11 04:24:50;;;;;;;37.43;12.90;;;0.40;99.90;;;;;;5059548;28;20231;-64
2022/01/11 04:27:16;;;;;;;32.83;13.20;;;0.30;99.90;;;;;;5067969;28;20181;-64
2022/01/11 04:29:41;;;;;;;36.93;11.80;;;0.30;99.90;;;;;;5066792;28;20212;-64
2022/01/11 04:32:07;;;;;;;36.57;13.13;;;0.30;99.90;;;;;;5062353;28;20246;-64
2022/01/11 04:34:33;;;;;;;25.30;11.60;;;0.30;99.90;;;;;;5066589;28;20189;-64
2022/01/11 04:36:58;;;;;;;36.47;15.27;;;0.30;99.90;;;;;;5063813;28;20451;-64
2022/01/11 04:41:59;;;;;;;35.53;12.60;;;0.30;99.90;;;;;;5582517;22;20480;-63
2022/01/11 04:44:25;;;;;;;37.20;14.50;;;0.30;99.90;;;;;;5062337;28;20857;-63
2022/01/11 04:46:51;;;;;;;35.23;14.20;;;0.30;99.90;;;;;;5064060;28;20571;-64
2022/01/11 04:49:17;;;;;;;40.23;13.50;;;0.30;99.90;;;;;;5068115;28;20185;-64
2022/01/11 04:51:43;;;;;;;30.47;12.20;;;0.30;99.90;;;;;;5060263;28;20859;-64
2022/01/11 04:54:09;;;;;;;28.63;12.10;;;0.30;99.90;;;;;;5068176;28;20275;-64
2022/01/11 04:56:35;;;;;;;31.43;12.20;;;0.40;99.90;;;;;;5067092;28;20189;-64
2022/01/11 04:59:01;;;;;;;28.47;12.13;;;0.30;99.90;;;;;;5068004;28;20422;-63
2022/01/11 05:01:29;;;;;;;27.80;13.50;;;0.30;99.90;;;;;;5066954;28;20439;-64
2022/01/11 05:03:55;;;;;;;29.33;12.63;;;0.40;99.90;;;;;;5068149;28;20216;-64
2022/01/11 05:06:20;;;;;;;32.70;13.00;;;0.40;99.90;;;;;;5067500;28;20423;-64
2022/01/11 05:08:46;;;;;;;31.97;12.43;;;0.40;99.90;;;;;;5067625;28;20647;-64
2022/01/11 05:11:12;;;;;;;32.80;12.87;;;0.40;99.90;;;;;;5169628;22;20235;-67
2022/01/11 05:13:37;;;;;;;32.43;14.00;;;0.40;99.90;;;;;;5051450;28;20921;-68
2022/01/11 05:16:03;;;;;;;33.20;14.60;;;0.40;99.90;;;;;;5049392;28;20308;-67
2022/01/11 05:18:30;;;;;;;29.50;12.77;;;0.40;99.90;;;;;;5048511;28;20186;-67
2022/01/11 05:20:56;;;;;;;23.27;11.90;;;0.50;99.90;;;;;;5050842;28;20197;-67
2022/01/11 05:23:22;;;;;;;29.60;11.70;;;0.40;99.90;;;;;;5055022;28;20855;-67
2022/01/11 05:25:48;;;;;;;43.00;14.60;;;0.50;99.90;;;;;;5050732;28;20182;-67
2022/01/11 05:28:14;;;;;;;38.43;15.77;;;0.50;99.90;;;;;;5053897;28;20299;-67
2022/01/11 05:30:40;;;;;;;41.10;14.33;;;0.50;99.90;;;;;;5048536;28;20442;-67
2022/01/11 05:33:06;;;;;;;25.70;13.43;;;0.50;99.90;;;;;;5048712;28;21190;-67
2022/01/11 05:35:32;;;;;;;30.03;13.80;;;0.50;99.90;;;;;;5049813;28;20193;-67
2022/01/11 05:37:58;;;;;;;30.70;12.30;;;0.50;99.90;;;;;;5049113;28;21042;-67
2022/01/11 05:40:23;;;;;;;26.00;11.20;;;0.50;99.90;;;;;;5048671;28;20441;-67
2022/01/11 05:42:50;;;;;;;38.57;12.47;;;0.50;99.90;;;;;;5048127;28;20553;-67
2022/01/11 05:45:17;;;;;;;37.20;13.80;;;0.50;99.90;;;;;;5052849;28;20196;-67
2022/01/11 05:47:43;;;;;;;26.37;12.07;;;0.50;99.90;;;;;;5048010;28;20429;-68
2022/01/11 05:50:10;;;;;;;27.70;12.60;;;0.50;99.90;;;;;;5048084;28;20907;-67
2022/01/11 05:52:38;;;;;;;45.50;13.33;;;0.50;99.90;;;;;;5048064;28;20460;-67
2022/01/11 05:55:06;;;;;;;33.40;12.90;;;0.50;99.90;;;;;;5050861;28;20503;-67
2022/01/11 05:57:31;;;;;;;35.63;13.43;;;0.50;99.90;;;;;;5048433;28;20909;-67
2022/01/11 05:59:57;;;;;;;34.97;12.70;;;0.50;99.90;;;;;;5048272;28;20471;-67
2022/01/11 06:02:23;;;;;;;43.10;13.47;;;0.50;99.90;;;;;;5047583;28;20198;-67
2022/01/11 06:04:49;;;;;;;31.60;13.77;;;0.50;99.90;;;;;;5050081;28;20608;-66
2022/01/11 06:07:16;;;;;;;35.80;12.33;;;0.50;99.90;;;;;;5047123;28;20547;-68
2022/01/11 06:09:41;;;;;;;30.93;12.57;;;0.50;99.90;;;;;;5046796;28;20833;-67
2022/01/11 06:12:08;;;;;;;28.53;11.37;;;0.50;99.90;;;;;;5047704;28;20455;-67
2022/01/11 06:14:33;;;;;;;28.43;11.60;;;0.50;99.90;;;;;;5048150;28;20209;-67
2022/01/11 06:16:59;;;;;;;35.57;12.70;;;0.60;99.90;;;;;;5047408;28;20486;-67
2022/01/11 06:19:26;;;;;;;40.37;12.20;;;0.60;99.90;;;;;;5047502;28;20272;-67
2022/01/11 06:21:52;;;;;;;27.37;12.60;;;0.60;99.90;;;;;;5047012;28;20196;-67
2022/01/11 06:24:17;;;;;;;26.23;11.83;;;0.60;99.90;;;;;;5051122;28;20471;-67
2022/01/11 06:26:43;;;;;;;29.03;11.57;;;0.60;99.90;;;;;;5047713;28;20424;-67
2022/01/11 06:29:09;;;;;;;35.73;13.97;;;0.60;99.90;;;;;;5052571;28;20185;-67
2022/01/11 06:31:35;;;;;;;29.03;13.43;;;0.60;99.90;;;;;;5049279;28;20193;-67
2022/01/11 06:34:02;;;;;;;23.53;11.23;;;0.60;99.90;;;;;;5047898;28;20464;-67
2022/01/11 06:36:28;;;;;;;29.27;12.97;;;0.60;99.90;;;;;;5038738;28;20444;-67
2022/01/11 06:38:54;;;;;;;37.30;14.40;;;0.60;99.90;;;;;;5052498;28;20423;-67
2022/01/11 06:41:20;;;;;;;30.20;13.27;;;0.60;99.90;;;;;;5051876;28;20177;-67
2022/01/11 06:43:46;;;;;;;28.20;11.10;;;0.60;99.90;;;;;;5044206;28;20327;-67
2022/01/11 06:46:11;;;;;;;39.07;14.10;;;0.60;99.90;;;;;;5045077;28;20584;-67
2022/01/11 06:48:37;;;;;;;26.10;12.70;;;0.60;99.90;;;;;;5046362;28;20652;-67
2022/01/11 06:51:03;;;;;;;36.33;13.03;;;0.60;99.90;;;;;;5044297;28;20190;-67
2022/01/11 06:53:31;;;;;;;39.27;12.33;;;0.60;99.90;;;;;;5045704;28;20267;-67
2022/01/11 06:55:56;;;;;;;20.17;10.57;;;0.60;99.90;;;;;;5046437;28;20428;-67
2022/01/11 06:58:22;;;;;;;34.10;14.03;;;0.70;99.90;;;;;;5046084;28;20969;-67
2022/01/11 07:00:48;;;;;;;29.63;13.67;;;0.60;99.90;;;;;;5048959;28;20617;-67
2022/01/11 07:03:18;;;;;;;28.03;10.93;;;0.70;99.90;;;;;;5050890;28;22055;-67
2022/01/11 07:05:44;;;;;;;22.60;11.53;;;0.80;99.90;;;;;;5046052;28;20422;-67
2022/01/11 07:08:11;;;;;;;34.20;14.43;;;0.80;99.90;;;;;;5049418;28;20429;-67
2022/01/11 07:10:37;;;;;;;36.53;12.67;;;0.80;99.90;;;;;;5048229;28;20482;-67
2022/01/11 07:13:03;;;;;;;36.70;12.23;;;0.80;99.90;;;;;;5045559;28;20515;-67
2022/01/11 07:15:30;;;;;;;31.80;14.30;;;0.90;99.90;;;;;;5046203;28;20614;-67
2022/01/11 07:17:56;;;;;;;29.17;14.00;;;0.90;99.90;;;;;;5046178;28;20435;-67
2022/01/11 07:20:22;;;;;;;28.30;12.67;;;1.00;99.90;;;;;;5046646;28;20441;-67
2022/01/11 07:22:48;;;;;;;36.53;13.17;;;1.00;99.90;;;;;;5046090;28;20574;-67
2022/01/11 07:25:14;;;;;;;27.07;12.50;;;1.00;99.90;;;;;;5048341;28;20446;-67
2022/01/11 07:27:40;;;;;;;30.07;13.07;;;1.00;99.90;;;;;;5048038;28;20435;-67
2022/01/11 07:30:07;;;;;;;40.83;13.47;;;1.00;99.90;;;;;;5049193;28;21186;-67
2022/01/11 07:32:35;;;;;;;35.30;13.53;;;1.00;99.90;;;;;;5051501;28;20208;-67
2022/01/11 07:35:01;;;;;;;29.70;13.13;;;1.00;99.90;;;;;;5055382;28;20437;-67
2022/01/11 07:37:27;;;;;;;31.67;14.37;;;1.00;99.90;;;;;;5048859;28;20460;-68
2022/01/11 07:39:52;;;;;;;37.70;12.53;;;1.00;99.90;;;;;;5048698;28;20589;-68
2022/01/11 07:42:18;;;;;;;32.90;13.87;;;1.00;99.90;;;;;;5052915;28;20186;-67
2022/01/11 07:44:45;;;;;;;36.57;14.00;;;1.00;99.90;;;;;;5048171;28;20271;-67
2022/01/11 07:47:10;;;;;;;36.77;13.30;;;1.10;99.90;;;;;;5048007;28;20185;-68
2022/01/11 07:49:36;;;;;;;30.13;11.83;;;1.00;99.90;;;;;;5047363;28;20419;-67
2022/01/11 07:52:03;;;;;;;29.57;13.50;;;1.00;99.90;;;;;;5047421;28;20289;-67
2022/01/11 07:54:28;;;;;;;40.97;14.40;;;1.10;99.90;;;;;;5050256;28;20194;-67
2022/01/11 07:56:54;;;;;;;36.13;15.03;;;1.10;99.90;;;;;;5050683;28;20438;-67
2022/01/11 07:59:20;;;;;;;37.30;12.53;;;1.10;99.90;;;;;;5051074;28;20213;-67
2022/01/11 08:01:45;;;;;;;36.43;14.23;;;1.10;99.90;;;;;;5048100;28;20197;-68
2022/01/11 08:04:11;;;;;;;31.53;12.23;;;1.10;99.90;;;;;;5048140;28;20217;-67
2022/01/11 08:06:37;;;;;;;29.97;13.17;;;1.20;99.90;;;;;;5051386;28;20185;-67
2022/01/11 08:09:03;;;;;;;26.97;12.57;;;1.20;99.90;;;;;;5051966;28;20192;-67
2022/01/11 08:11:29;;;;;;;36.50;13.20;;;1.30;99.90;;;;;;5050857;28;20571;-67
2022/01/11 08:13:55;;;;;;;37.83;12.00;;;1.30;99.90;;;;;;5048709;28;20428;-67
2022/01/11 08:16:20;;;;;;;36.37;12.27;;;1.30;99.90;;;;;;5047400;28;20486;-67
2022/01/11 08:18:46;;;;;;;28.47;12.57;;;1.30;99.90;;;;;;5045140;28;20634;-68
2022/01/11 08:21:12;;;;;;;24.70;12.00;;;1.30;99.90;;;;;;5048654;28;20562;-67
2022/01/11 08:23:37;;;;;;;26.47;12.10;;;1.40;99.90;;;;;;5048318;28;20202;-67
2022/01/11 08:26:03;;;;;;;32.30;13.43;;;1.40;99.90;;;;;;5047314;28;20192;-67
2022/01/11 08:28:29;;;;;;;26.73;11.90;;;1.40;99.90;;;;;;5048159;28;20200;-67
2022/01/11 08:30:57;;;;;;;31.77;12.57;;;1.40;99.90;;;;;;5046405;28;20441;-68
2022/01/11 08:33:23;;;;;;;35.10;12.53;;;1.50;99.90;;;;;;5047062;28;20296;-68
2022/01/11 08:35:49;;;;;;;32.37;10.70;;;1.50;99.90;;;;;;5051921;28;20458;-68
2022/01/11 08:38:15;;;;;;;27.73;10.77;;;1.60;99.90;;;;;;5048077;28;20823;-67
2022/01/11 08:40:40;;;;;;;23.13;10.63;;;1.60;99.90;;;;;;5050959;28;20178;-68
2022/01/11 08:43:06;;;;;;;27.00;10.47;;;1.60;99.90;;;;;;5048940;28;20532;-66
2022/01/11 08:45:33;;;;;;;22.40;10.40;;;1.60;99.90;;;;;;5045793;28;20261;-66
2022/01/11 08:47:59;;;;;;;30.53;12.50;;;1.70;99.90;;;;;;5047954;28;20197;-67
2022/01/11 08:50:25;;;;;;;21.40;11.30;;;1.70;99.90;;;;;;5049314;28;20906;-67
2022/01/11 08:52:51;;;;;;;33.90;11.40;;;1.70;99.90;;;;;;5048287;28;20526;-66
2022/01/11 08:55:17;;;;;;;30.57;10.83;;;1.70;99.90;;;;;;5055307;28;20434;-66
2022/01/11 08:57:44;;;;;;;30.53;10.80;;;1.70;99.90;;;;;;5048501;28;20243;-67
2022/01/11 09:00:16;;;;;;;39.87;11.63;;;1.70;99.90;;;;;;5048845;28;20429;-67
2022/01/11 09:02:44;;;;;;;26.47;11.53;;;1.80;99.90;;;;;;5047333;28;20427;-67
2022/01/11 09:05:09;;;;;;;22.20;9.17;;;1.80;99.90;;;;;;5049414;28;21219;-67
2022/01/11 09:07:35;;;;;;;25.37;10.60;;;1.80;99.90;;;;;;5047328;28;20436;-67
2022/01/11 09:10:01;;;;;;;23.13;11.20;;;1.80;99.90;;;;;;5049545;28;20189;-66
2022/01/11 09:12:26;;;;;;;30.03;11.70;;;1.80;99.90;;;;;;5050950;28;20213;-66
2022/01/11 09:14:52;;;;;;;24.00;10.93;;;1.90;99.90;;;;;;5047667;28;20201;-67
2022/01/11 09:17:18;;;;;;;21.30;10.90;;;1.80;99.90;;;;;;5044807;28;20259;-66
2022/01/11 09:19:43;;;;;;;30.60;11.60;;;1.90;99.90;;;;;;5043140;28;20204;-67
2022/01/11 09:22:09;;;;;;;27.80;11.30;;;1.90;99.90;;;;;;5046342;28;21029;-66
2022/01/11 09:24:36;;;;;;;32.57;10.63;;;2.00;99.90;;;;;;5041595;28;20253;-67
2022/01/11 09:27:04;;;;;;;21.70;9.80;;;2.00;99.90;;;;;;5044343;28;20189;-66
2022/01/11 09:29:34;;;;;;;29.30;10.60;;;2.00;99.90;;;;;;5046480;28;20902;-67
2022/01/11 09:32:01;;;;;;;20.03;10.67;;;2.00;99.90;;;;;;5043253;28;20808;-66
2022/01/11 09:34:27;;;;;;;22.00;9.00;;;2.10;99.90;;;;;;5047673;28;20430;-66
2022/01/11 09:36:53;;;;;;;21.50;7.70;;;2.10;99.90;;;;;;5046293;28;21798;-67
2022/01/11 09:39:19;;;;;;;41.13;11.20;;;2.10;99.90;;;;;;5047166;28;20429;-67
2022/01/11 09:41:45;;;;;;;24.47;9.80;;;2.10;99.90;;;;;;5047912;28;21182;-67
2022/01/11 09:44:11;;;;;;;26.20;9.43;;;2.20;99.90;;;;;;5046265;28;20456;-67
2022/01/11 09:46:38;;;;;;;14.63;7.70;;;2.30;99.90;;;;;;5040004;28;20197;-67
2022/01/11 09:49:05;;;;;;;24.90;9.20;;;2.30;99.90;;;;;;5049181;28;20482;-67
2022/01/11 09:51:32;;;;;;;22.73;10.17;;;2.30;99.90;;;;;;5046364;28;21157;-67
2022/01/11 09:53:58;;;;;;;17.90;9.10;;;2.40;99.90;;;;;;5044430;28;20961;-67
2022/01/11 09:56:25;;;;;;;28.53;10.30;;;2.40;99.90;;;;;;5046172;28;20428;-66
2022/01/11 09:58:51;;;;;;;20.17;9.47;;;2.40;99.90;;;;;;5049049;28;20513;-69
2022/01/11 10:01:17;;;;;;;22.17;10.27;;;2.50;99.90;;;;;;5045042;28;20420;-67
2022/01/11 10:03:56;;;;;;;22.10;9.23;;;2.50;99.90;;;;;;5047500;28;20554;-67
2022/01/11 10:06:22;;;;;;;19.53;9.23;;;2.50;99.90;;;;;;5043218;28;20182;-67
2022/01/11 10:08:48;;;;;;;16.50;8.17;;;2.60;99.90;;;;;;5045049;28;20444;-67
2022/01/11 10:11:14;;;;;;;21.30;9.60;;;2.60;99.90;;;;;;5041776;28;20436;-67
2022/01/11 10:13:41;;;;;;;21.00;8.10;;;2.60;99.90;;;;;;5047109;28;20428;-66
2022/01/11 10:16:23;;;;;;;14.30;7.20;;;2.70;99.90;;;;;;5044578;28;20182;-67
2022/01/11 10:18:51;;;;;;;14.97;6.90;;;2.80;99.90;;;;;;5043383;28;20423;-67
2022/01/11 10:21:43;;;;;;;15.77;7.60;;;2.90;99.90;;;;;;5044068;28;20431;-67
2022/01/11 10:24:32;;;;;;;22.37;8.30;;;2.90;99.90;;;;;;5043539;28;20547;-67
2022/01/11 10:27:02;;;;;;;11.80;6.30;;;3.00;99.90;;;;;;5045106;28;20452;-67
2022/01/11 10:29:36;;;;;;;11.73;6.30;;;3.00;99.90;;;;;;5049699;28;20417;-67
2022/01/11 10:32:15;;;;;;;15.80;7.70;;;3.10;99.90;;;;;;5048726;28;20419;-67
2022/01/11 10:34:43;;;;;;;15.30;6.23;;;3.10;99.90;;;;;;5044988;28;20431;-67
2022/01/11 10:37:10;;;;;;;20.80;7.47;;;3.10;99.90;;;;;;5050659;28;20427;-67
2022/01/11 10:39:40;;;;;;;14.30;5.93;;;3.20;99.90;;;;;;5046617;28;20424;-67
2022/01/11 10:42:21;;;;;;;12.80;6.33;;;3.20;99.90;;;;;;5046326;28;20474;-68
2022/01/11 10:44:52;;;;;;;12.20;6.70;;;3.30;99.90;;;;;;5044711;28;20468;-66
2022/01/11 10:47:24;;;;;;;10.27;5.70;;;3.40;99.90;;;;;;5043501;28;20446;-66
2022/01/11 10:49:59;;;;;;;14.37;6.20;;;3.40;99.90;;;;;;5044820;28;20531;-67
2022/01/11 10:52:31;;;;;;;13.43;6.40;;;3.50;99.90;;;;;;5039428;28;20778;-68
2022/01/11 10:54:58;;;;;;;15.23;6.20;;;3.50;99.90;;;;;;5039795;28;20455;-69
2022/01/11 10:57:29;;;;;;;13.40;5.30;;;3.50;99.90;;;;;;5045570;28;20478;-69
2022/01/11 11:00:04;;;;;;;11.50;5.03;;;3.50;99.90;;;;;;5039957;28;20420;-68
2022/01/11 11:02:30;;;;;;;12.60;5.30;;;3.50;99.90;;;;;;5044236;28;20490;-66
2022/01/11 11:05:00;;;;;;;17.53;5.47;;;3.70;99.90;;;;;;5044898;28;20570;-66
2022/01/11 11:07:27;;;;;;;14.37;6.40;;;3.60;99.90;;;;;;5044119;28;20474;-67
2022/01/11 11:09:53;;;;;;;12.37;5.30;;;3.70;99.90;;;;;;5041230;28;20473;-66
2022/01/11 11:12:21;;;;;;;10.20;5.03;;;3.70;99.90;;;;;;5047044;28;20469;-66
2022/01/11 11:14:56;;;;;;;9.50;4.60;;;3.60;99.90;;;;;;5050468;28;20458;-67
2022/01/11 11:17:35;;;;;;;11.37;5.47;;;3.80;99.90;;;;;;5043728;28;20450;-66
2022/01/11 11:20:09;;;;;;;11.43;4.83;;;4.20;99.90;;;;;;5045137;28;20437;-66
2022/01/11 11:22:35;;;;;;;8.97;4.33;;;4.40;99.90;;;;;;5049956;28;20467;-67
2022/01/11 11:25:02;;;;;;;5.33;2.87;;;4.80;99.90;;;;;;5047321;28;20899;-67
2022/01/11 11:27:30;;;;;;;7.37;3.97;;;4.80;99.90;;;;;;5044771;28;20707;-67
2022/01/11 11:29:58;;;;;;;13.07;4.10;;;4.80;99.90;;;;;;5044522;28;20764;-67
2022/01/11 11:32:24;;;;;;;13.13;4.83;;;4.40;99.90;;;;;;5046561;28;20979;-67
2022/01/11 11:34:50;;;;;;;13.03;4.53;;;4.20;99.90;;;;;;5045355;28;20420;-67
2022/01/11 11:37:24;;;;;;;3.60;2.10;;;4.10;99.90;;;;;;5044445;28;20428;-66
2022/01/11 11:40:00;;;;;;;3.70;1.67;;;4.10;99.90;;;;;;5044667;28;20182;-67
2022/01/11 11:42:27;;;;;;;4.93;2.07;;;4.10;98.90;;;;;;5043193;28;20514;-67
2022/01/11 11:44:53;;;;;;;3.93;0.90;;;4.30;98.20;;;;;;5044362;28;20509;-67
2022/01/11 11:47:31;;;;;;;2.70;1.10;;;4.40;97.50;;;;;;5044072;28;20428;-67
2022/01/11 11:50:04;;;;;;;1.40;0.80;;;4.40;96.80;;;;;;5047840;28;20599;-67
2022/01/11 11:52:42;;;;;;;1.70;0.87;;;4.50;96.60;;;;;;5037794;28;20519;-67
2022/01/11 11:55:23;;;;;;;3.13;1.47;;;4.50;95.70;;;;;;5049996;28;20883;-67
2022/01/11 11:58:01;;;;;;;2.33;1.13;;;4.50;95.50;;;;;;5045905;28;20412;-67
2022/01/11 12:00:30;;;;;;;6.27;1.57;;;4.50;96.20;;;;;;5046866;28;20415;-67
2022/01/11 12:03:16;;;;;;;5.73;1.67;;;4.40;96.60;;;;;;5052574;28;20426;-68
2022/01/11 12:05:45;;;;;;;3.13;1.00;;;4.40;96.60;;;;;;5050592;28;20441;-68
2022/01/11 12:08:32;;;;;;;2.27;1.20;;;4.30;96.50;;;;;;5047725;28;20412;-67
2022/01/11 12:11:08;;;;;;;5.13;1.70;;;4.20;96.40;;;;;;5047650;28;20490;-67
2022/01/11 12:13:52;;;;;;;5.83;1.57;;;4.30;97.30;;;;;;5053110;28;20407;-67
2022/01/11 12:16:26;;;;;;;6.57;1.83;;;4.10;96.50;;;;;;5048234;28;20986;-67
2022/01/11 12:18:53;;;;;;;2.87;1.37;;;4.00;96.50;;;;;;5048259;28;20431;-67
2022/01/11 12:21:22;;;;;;;3.23;1.70;;;4.10;96.60;;;;;;5047908;28;20428;-68
2022/01/11 12:23:53;;;;;;;3.50;1.53;;;3.90;96.90;;;;;;5041595;28;20460;-68
2022/01/11 12:26:37;;;;;;;2.00;1.10;;;3.90;97.00;;;;;;5047690;28;20424;-68
2022/01/11 12:29:03;;;;;;;2.10;1.30;;;3.90;97.00;;;;;;5046295;28;20547;-68
2022/01/11 12:31:50;;;;;;;3.13;1.47;;;3.70;97.00;;;;;;5046897;28;20408;-68
2022/01/11 12:34:16;;;;;;;3.13;1.40;;;3.60;96.90;;;;;;5047380;28;20551;-68
2022/01/11 12:37:04;;;;;;;4.23;1.83;;;3.60;97.20;;;;;;5047601;28;20424;-68
2022/01/11 12:39:32;;;;;;;2.47;1.07;;;3.60;96.80;;;;;;5049521;28;20466;-68
2022/01/11 12:41:59;;;;;;;4.80;1.30;;;3.70;96.90;;;;;;5047444;28;20530;-68
2022/01/11 12:46:59;;;;;;;2.23;1.40;;;4.20;96.80;;;;;;5050851;28;20436;-68
2022/01/11 12:49:26;;;;;;;3.73;1.93;;;4.30;96.10;;;;;;5046219;28;20485;-68
2022/01/11 12:51:56;;;;;;;2.10;1.13;;;4.20;95.70;;;;;;5047414;28;21115;-68
2022/01/11 12:54:35;;;;;;;2.73;1.40;;;4.20;95.90;;;;;;5045918;28;20478;-68
2022/01/11 12:57:15;;;;;;;2.53;1.10;;;4.10;95.50;;;;;;5048840;28;20507;-68